sensor_id;sensor_type;location;lat;lon;timestamp;noise_LAeq;noise_LA_min;noise_LA_max;noise_LA01;noise_LA95
70740;Laerm;58330;51.888;11.052;2023-02-03T00:01:07;40.84;38.81;44.47;;
70740;Laerm;58330;51.888;11.052;2023-02-03T00:03:33;40.79;39.10;42.87;;
70740;Laerm;58330;51.888;11.052;2023-02-03T00:05:59;40.68;39.12;42.52;;
70740;Laerm;58330;51.888;11.052;2023-02-03T00:08:25;40.72;39.12;42.51;;
70740;Laerm;58330;51.888;11.052;2023-02-03T00:10:51;40.69;38.92;42.26;;
70740;Laerm;58330;51.888;11.052;2023-02-03T00:13:17;40.95;39.13;43.47;;
70740;Laerm;58330;51.888;11.052;2023-02-03T00:15:42;41.11;39.31;44.40;;
70740;Laerm;58330;51.888;11.052;2023-02-03T00:18:08;41.19;39.49;42.94;;
70740;Laerm;58330;51.888;11.052;2023-02-03T00:20:34;40.85;38.91;43.10;;
70740;Laerm;58330;51.888;11.052;2023-02-03T00:23:03;40.86;39.26;42.88;;
70740;Laerm;58330;51.888;11.052;2023-02-03T00:25:29;40.88;39.07;42.36;;
70740;Laerm;58330;51.888;11.052;2023-02-03T00:27:55;40.97;39.32;43.37;;
70740;Laerm;58330;51.888;11.052;2023-02-03T00:30:20;40.97;39.35;42.91;;
70740;Laerm;58330;51.888;11.052;2023-02-03T00:32:46;40.94;39.47;44.48;;
70740;Laerm;58330;51.888;11.052;2023-02-03T00:35:12;40.89;39.32;43.25;;
70740;Laerm;58330;51.888;11.052;2023-02-03T00:37:37;40.86;39.44;42.63;;
70740;Laerm;58330;51.888;11.052;2023-02-03T00:40:03;40.80;39.26;42.32;;
70740;Laerm;58330;51.888;11.052;2023-02-03T00:42:29;40.80;39.14;42.30;;
70740;Laerm;58330;51.888;11.052;2023-02-03T00:44:55;40.79;39.33;42.45;;
70740;Laerm;58330;51.888;11.052;2023-02-03T00:47:21;40.78;39.21;42.41;;
70740;Laerm;58330;51.888;11.052;2023-02-03T00:49:46;40.84;38.90;42.42;;
70740;Laerm;58330;51.888;11.052;2023-02-03T00:52:12;40.96;39.12;42.99;;
70740;Laerm;58330;51.888;11.052;2023-02-03T00:54:37;40.90;39.17;43.02;;
70740;Laerm;58330;51.888;11.052;2023-02-03T00:57:03;40.92;39.33;42.57;;
70740;Laerm;58330;51.888;11.052;2023-02-03T00:59:29;40.96;39.15;43.38;;
70740;Laerm;58330;51.888;11.052;2023-02-03T01:01:55;40.87;39.35;44.12;;
70740;Laerm;58330;51.888;11.052;2023-02-03T01:04:20;40.81;39.17;42.57;;
70740;Laerm;58330;51.888;11.052;2023-02-03T01:06:46;40.76;39.01;42.49;;
70740;Laerm;58330;51.888;11.052;2023-02-03T01:09:12;40.63;38.55;44.99;;
70740;Laerm;58330;51.888;11.052;2023-02-03T01:11:37;41.12;39.38;43.78;;
70740;Laerm;58330;51.888;11.052;2023-02-03T01:14:03;41.14;39.43;43.22;;
70740;Laerm;58330;51.888;11.052;2023-02-03T01:16:29;40.99;39.25;42.93;;
70740;Laerm;58330;51.888;11.052;2023-02-03T01:18:55;40.86;39.14;43.37;;
70740;Laerm;58330;51.888;11.052;2023-02-03T01:21:21;40.81;38.85;43.28;;
70740;Laerm;58330;51.888;11.052;2023-02-03T01:23:48;40.91;39.42;43.04;;
70740;Laerm;58330;51.888;11.052;2023-02-03T01:26:15;40.74;39.18;42.79;;
70740;Laerm;58330;51.888;11.052;2023-02-03T01:28:40;40.75;38.85;43.26;;
70740;Laerm;58330;51.888;11.052;2023-02-03T01:31:10;40.77;39.24;42.75;;
70740;Laerm;58330;51.888;11.052;2023-02-03T01:33:37;40.80;39.17;42.68;;
70740;Laerm;58330;51.888;11.052;2023-02-03T01:36:05;40.90;39.16;43.96;;
70740;Laerm;58330;51.888;11.052;2023-02-03T01:38:31;40.81;38.82;43.05;;
70740;Laerm;58330;51.888;11.052;2023-02-03T01:40:56;40.73;39.09;42.79;;
70740;Laerm;58330;51.888;11.052;2023-02-03T01:43:28;40.65;39.01;42.48;;
70740;Laerm;58330;51.888;11.052;2023-02-03T01:45:54;40.81;39.21;43.65;;
70740;Laerm;58330;51.888;11.052;2023-02-03T01:48:20;40.87;38.88;43.15;;
70740;Laerm;58330;51.888;11.052;2023-02-03T01:50:46;40.96;38.90;42.68;;
70740;Laerm;58330;51.888;11.052;2023-02-03T01:53:12;40.99;39.10;43.51;;
70740;Laerm;58330;51.888;11.052;2023-02-03T01:55:40;41.16;39.12;43.49;;
70740;Laerm;58330;51.888;11.052;2023-02-03T01:58:07;41.16;39.35;43.87;;
70740;Laerm;58330;51.888;11.052;2023-02-03T02:00:35;41.29;39.14;43.44;;
70740;Laerm;58330;51.888;11.052;2023-02-03T02:03:01;41.40;39.27;43.92;;
70740;Laerm;58330;51.888;11.052;2023-02-03T02:05:29;40.96;38.57;43.81;;
70740;Laerm;58330;51.888;11.052;2023-02-03T02:07:57;41.04;38.75;43.29;;
70740;Laerm;58330;51.888;11.052;2023-02-03T02:10:24;41.18;39.02;45.21;;
70740;Laerm;58330;51.888;11.052;2023-02-03T02:12:50;41.11;38.88;43.64;;
70740;Laerm;58330;51.888;11.052;2023-02-03T02:15:16;41.04;39.04;43.21;;
70740;Laerm;58330;51.888;11.052;2023-02-03T02:17:47;41.00;39.10;43.56;;
70740;Laerm;58330;51.888;11.052;2023-02-03T02:20:25;41.45;39.35;43.92;;
70740;Laerm;58330;51.888;11.052;2023-02-03T02:22:59;40.96;38.96;43.38;;
70740;Laerm;58330;51.888;11.052;2023-02-03T02:25:38;40.68;38.04;44.49;;
70740;Laerm;58330;51.888;11.052;2023-02-03T02:28:14;41.58;39.24;45.14;;
70740;Laerm;58330;51.888;11.052;2023-02-03T02:33:33;41.31;39.43;44.86;;
70740;Laerm;58330;51.888;11.052;2023-02-03T02:36:04;41.30;38.99;44.95;;
70740;Laerm;58330;51.888;11.052;2023-02-03T02:38:35;41.28;39.11;44.16;;
70740;Laerm;58330;51.888;11.052;2023-02-03T02:41:04;41.17;38.88;44.09;;
70740;Laerm;58330;51.888;11.052;2023-02-03T02:43:33;41.48;39.14;47.02;;
70740;Laerm;58330;51.888;11.052;2023-02-03T02:46:00;41.20;39.17;44.85;;
70740;Laerm;58330;51.888;11.052;2023-02-03T02:48:28;41.04;38.68;43.95;;
70740;Laerm;58330;51.888;11.052;2023-02-03T02:50:56;41.20;39.27;44.64;;
70740;Laerm;58330;51.888;11.052;2023-02-03T02:53:23;41.45;39.12;44.68;;
70740;Laerm;58330;51.888;11.052;2023-02-03T02:55:50;41.22;38.82;43.97;;
70740;Laerm;58330;51.888;11.052;2023-02-03T02:58:16;41.27;39.10;46.11;;
70740;Laerm;58330;51.888;11.052;2023-02-03T03:00:43;41.34;39.55;43.83;;
70740;Laerm;58330;51.888;11.052;2023-02-03T03:03:11;41.33;38.99;44.14;;
70740;Laerm;58330;51.888;11.052;2023-02-03T03:05:37;41.23;39.16;45.15;;
70740;Laerm;58330;51.888;11.052;2023-02-03T03:08:04;41.61;39.60;45.37;;
70740;Laerm;58330;51.888;11.052;2023-02-03T03:10:30;41.61;39.41;46.65;;
70740;Laerm;58330;51.888;11.052;2023-02-03T03:12:58;41.47;39.61;45.54;;
70740;Laerm;58330;51.888;11.052;2023-02-03T03:15:25;41.48;39.27;46.87;;
70740;Laerm;58330;51.888;11.052;2023-02-03T03:17:52;41.29;39.28;44.02;;
70740;Laerm;58330;51.888;11.052;2023-02-03T03:20:20;41.52;39.66;44.89;;
70740;Laerm;58330;51.888;11.052;2023-02-03T03:22:47;41.39;39.15;44.15;;
70740;Laerm;58330;51.888;11.052;2023-02-03T03:25:17;41.18;38.66;43.64;;
70740;Laerm;58330;51.888;11.052;2023-02-03T03:27:43;41.34;38.89;43.81;;
70740;Laerm;58330;51.888;11.052;2023-02-03T03:30:13;41.18;39.12;44.32;;
70740;Laerm;58330;51.888;11.052;2023-02-03T03:32:40;41.68;39.18;44.52;;
70740;Laerm;58330;51.888;11.052;2023-02-03T03:35:06;41.28;38.53;44.33;;
70740;Laerm;58330;51.888;11.052;2023-02-03T03:37:33;41.19;38.89;46.14;;
70740;Laerm;58330;51.888;11.052;2023-02-03T03:40:00;41.18;38.86;43.78;;
70740;Laerm;58330;51.888;11.052;2023-02-03T03:42:28;41.08;38.78;44.67;;
70740;Laerm;58330;51.888;11.052;2023-02-03T03:44:56;41.46;38.66;45.12;;
70740;Laerm;58330;51.888;11.052;2023-02-03T03:47:22;41.15;38.49;46.11;;
70740;Laerm;58330;51.888;11.052;2023-02-03T03:49:49;41.08;38.40;44.44;;
70740;Laerm;58330;51.888;11.052;2023-02-03T03:52:17;41.10;37.99;44.42;;
70740;Laerm;58330;51.888;11.052;2023-02-03T03:54:45;40.97;37.98;46.04;;
70740;Laerm;58330;51.888;11.052;2023-02-03T03:57:12;41.02;38.30;43.88;;
70740;Laerm;58330;51.888;11.052;2023-02-03T03:59:40;41.34;39.10;45.24;;
70740;Laerm;58330;51.888;11.052;2023-02-03T04:02:08;41.21;38.99;44.63;;
70740;Laerm;58330;51.888;11.052;2023-02-03T04:04:35;41.06;39.00;46.05;;
70740;Laerm;58330;51.888;11.052;2023-02-03T04:07:02;41.16;38.63;45.27;;
70740;Laerm;58330;51.888;11.052;2023-02-03T04:09:28;40.77;38.40;45.08;;
70740;Laerm;58330;51.888;11.052;2023-02-03T04:11:54;40.32;37.50;44.58;;
70740;Laerm;58330;51.888;11.052;2023-02-03T04:14:25;40.29;38.02;44.24;;
70740;Laerm;58330;51.888;11.052;2023-02-03T04:16:52;40.61;37.75;44.99;;
70740;Laerm;58330;51.888;11.052;2023-02-03T04:19:17;40.60;37.78;43.47;;
70740;Laerm;58330;51.888;11.052;2023-02-03T04:21:43;40.97;38.43;47.32;;
70740;Laerm;58330;51.888;11.052;2023-02-03T04:24:08;40.90;38.79;44.06;;
70740;Laerm;58330;51.888;11.052;2023-02-03T04:26:34;40.86;38.54;44.76;;
70740;Laerm;58330;51.888;11.052;2023-02-03T04:28:59;40.69;37.99;46.43;;
70740;Laerm;58330;51.888;11.052;2023-02-03T04:31:25;40.65;37.72;44.95;;
70740;Laerm;58330;51.888;11.052;2023-02-03T04:33:52;40.14;37.62;45.68;;
70740;Laerm;58330;51.888;11.052;2023-02-03T04:36:17;39.61;36.76;45.57;;
70740;Laerm;58330;51.888;11.052;2023-02-03T04:38:43;40.73;38.34;43.79;;
70740;Laerm;58330;51.888;11.052;2023-02-03T04:41:08;40.50;37.00;43.73;;
70740;Laerm;58330;51.888;11.052;2023-02-03T04:43:34;39.86;36.36;43.94;;
70740;Laerm;58330;51.888;11.052;2023-02-03T04:46:00;40.16;36.65;47.06;;
70740;Laerm;58330;51.888;11.052;2023-02-03T04:48:25;40.07;37.19;45.33;;
70740;Laerm;58330;51.888;11.052;2023-02-03T04:50:51;40.49;37.66;43.91;;
70740;Laerm;58330;51.888;11.052;2023-02-03T04:53:17;40.68;37.91;44.54;;
70740;Laerm;58330;51.888;11.052;2023-02-03T04:55:45;40.12;37.00;43.29;;
70740;Laerm;58330;51.888;11.052;2023-02-03T04:58:10;39.72;36.42;44.36;;
70740;Laerm;58330;51.888;11.052;2023-02-03T05:00:36;39.40;36.20;42.62;;
70740;Laerm;58330;51.888;11.052;2023-02-03T05:03:01;39.71;35.76;46.62;;
70740;Laerm;58330;51.888;11.052;2023-02-03T05:05:27;39.06;35.59;42.73;;
70740;Laerm;58330;51.888;11.052;2023-02-03T05:07:53;39.61;35.77;47.37;;
70740;Laerm;58330;51.888;11.052;2023-02-03T05:10:19;39.10;35.90;42.73;;
70740;Laerm;58330;51.888;11.052;2023-02-03T05:12:44;39.15;35.82;42.45;;
70740;Laerm;58330;51.888;11.052;2023-02-03T05:15:10;39.14;36.16;42.33;;
70740;Laerm;58330;51.888;11.052;2023-02-03T05:17:36;38.61;36.00;44.51;;
70740;Laerm;58330;51.888;11.052;2023-02-03T05:20:04;39.03;34.94;43.26;;
70740;Laerm;58330;51.888;11.052;2023-02-03T05:22:29;40.03;35.90;50.44;;
70740;Laerm;58330;51.888;11.052;2023-02-03T05:24:56;38.78;35.53;42.44;;
70740;Laerm;58330;51.888;11.052;2023-02-03T05:27:21;39.70;35.23;44.90;;
70740;Laerm;58330;51.888;11.052;2023-02-03T05:29:47;38.69;35.04;41.80;;
70740;Laerm;58330;51.888;11.052;2023-02-03T05:32:13;40.13;36.74;45.62;;
70740;Laerm;58330;51.888;11.052;2023-02-03T05:34:38;40.46;36.90;46.92;;
70740;Laerm;58330;51.888;11.052;2023-02-03T05:37:04;39.21;35.83;47.24;;
70740;Laerm;58330;51.888;11.052;2023-02-03T05:39:30;40.17;35.87;47.22;;
70740;Laerm;58330;51.888;11.052;2023-02-03T05:41:56;39.45;36.70;44.39;;
70740;Laerm;58330;51.888;11.052;2023-02-03T05:44:22;39.25;36.07;47.36;;
70740;Laerm;58330;51.888;11.052;2023-02-03T05:46:48;39.48;36.50;43.70;;
70740;Laerm;58330;51.888;11.052;2023-02-03T05:49:14;39.56;36.33;47.28;;
70740;Laerm;58330;51.888;11.052;2023-02-03T05:51:40;39.74;36.16;43.52;;
70740;Laerm;58330;51.888;11.052;2023-02-03T05:54:06;40.29;36.97;44.47;;
70740;Laerm;58330;51.888;11.052;2023-02-03T05:56:32;40.62;37.15;45.76;;
70740;Laerm;58330;51.888;11.052;2023-02-03T05:58:58;40.73;36.52;46.78;;
70740;Laerm;58330;51.888;11.052;2023-02-03T06:01:24;39.55;36.94;42.78;;
70740;Laerm;58330;51.888;11.052;2023-02-03T06:03:50;39.60;36.68;43.08;;
70740;Laerm;58330;51.888;11.052;2023-02-03T06:06:15;39.82;37.00;44.25;;
70740;Laerm;58330;51.888;11.052;2023-02-03T06:08:41;41.42;37.82;48.22;;
70740;Laerm;58330;51.888;11.052;2023-02-03T06:11:07;41.68;37.29;51.55;;
70740;Laerm;58330;51.888;11.052;2023-02-03T06:13:33;42.94;37.44;54.30;;
70740;Laerm;58330;51.888;11.052;2023-02-03T06:15:59;40.28;36.41;46.24;;
70740;Laerm;58330;51.888;11.052;2023-02-03T06:18:25;40.63;36.58;49.61;;
70740;Laerm;58330;51.888;11.052;2023-02-03T06:20:51;39.98;36.92;55.79;;
70740;Laerm;58330;51.888;11.052;2023-02-03T06:23:16;40.68;37.17;46.35;;
70740;Laerm;58330;51.888;11.052;2023-02-03T06:25:43;41.01;37.83;47.36;;
70740;Laerm;58330;51.888;11.052;2023-02-03T06:28:10;41.75;37.18;46.68;;
70740;Laerm;58330;51.888;11.052;2023-02-03T06:30:36;41.19;37.34;46.46;;
70740;Laerm;58330;51.888;11.052;2023-02-03T06:33:03;41.45;36.51;47.26;;
70740;Laerm;58330;51.888;11.052;2023-02-03T06:36:00;44.18;37.60;51.50;;
70740;Laerm;58330;51.888;11.052;2023-02-03T06:39:20;41.03;36.74;47.79;;
70740;Laerm;58330;51.888;11.052;2023-02-03T06:45:34;39.25;36.10;51.83;;
70740;Laerm;58330;51.888;11.052;2023-02-03T06:51:56;42.02;37.68;49.20;;
70740;Laerm;58330;51.888;11.052;2023-02-03T06:54:22;42.28;37.30;55.56;;
70740;Laerm;58330;51.888;11.052;2023-02-03T06:56:48;41.67;37.89;50.61;;
70740;Laerm;58330;51.888;11.052;2023-02-03T06:59:14;40.51;37.27;45.93;;
70740;Laerm;58330;51.888;11.052;2023-02-03T07:01:40;43.41;38.23;47.98;;
70740;Laerm;58330;51.888;11.052;2023-02-03T07:04:05;40.60;36.05;48.15;;
70740;Laerm;58330;51.888;11.052;2023-02-03T07:06:31;38.71;35.86;48.10;;
70740;Laerm;58330;51.888;11.052;2023-02-03T07:08:59;40.39;36.53;47.20;;
70740;Laerm;58330;51.888;11.052;2023-02-03T07:11:25;40.95;38.09;48.04;;
70740;Laerm;58330;51.888;11.052;2023-02-03T07:13:51;41.92;38.37;48.45;;
70740;Laerm;58330;51.888;11.052;2023-02-03T07:16:16;40.97;38.10;45.77;;
70740;Laerm;58330;51.888;11.052;2023-02-03T07:18:43;41.24;37.41;47.76;;
70740;Laerm;58330;51.888;11.052;2023-02-03T07:21:08;40.98;38.25;46.24;;
70740;Laerm;58330;51.888;11.052;2023-02-03T07:23:34;41.41;37.95;47.15;;
70740;Laerm;58330;51.888;11.052;2023-02-03T07:26:01;41.19;38.19;46.67;;
70740;Laerm;58330;51.888;11.052;2023-02-03T07:28:28;41.38;37.69;46.83;;
70740;Laerm;58330;51.888;11.052;2023-02-03T07:30:54;42.77;38.57;49.51;;
70740;Laerm;58330;51.888;11.052;2023-02-03T07:33:19;41.95;38.71;46.56;;
70740;Laerm;58330;51.888;11.052;2023-02-03T07:35:50;43.09;38.78;49.50;;
70740;Laerm;58330;51.888;11.052;2023-02-03T07:38:18;42.63;38.80;48.82;;
70740;Laerm;58330;51.888;11.052;2023-02-03T07:40:43;42.42;38.97;46.85;;
70740;Laerm;58330;51.888;11.052;2023-02-03T07:43:10;42.70;38.12;51.57;;
70740;Laerm;58330;51.888;11.052;2023-02-03T07:45:35;43.12;39.01;49.44;;
70740;Laerm;58330;51.888;11.052;2023-02-03T07:48:01;42.41;38.50;48.90;;
70740;Laerm;58330;51.888;11.052;2023-02-03T07:50:28;43.57;38.81;49.43;;
70740;Laerm;58330;51.888;11.052;2023-02-03T07:52:54;41.70;38.73;47.56;;
70740;Laerm;58330;51.888;11.052;2023-02-03T07:55:20;41.93;38.10;47.55;;
70740;Laerm;58330;51.888;11.052;2023-02-03T07:57:46;42.65;38.65;48.01;;
70740;Laerm;58330;51.888;11.052;2023-02-03T08:00:13;42.13;38.91;47.60;;
70740;Laerm;58330;51.888;11.052;2023-02-03T08:02:40;41.55;38.20;45.55;;
70740;Laerm;58330;51.888;11.052;2023-02-03T08:05:06;42.16;38.57;49.17;;
70740;Laerm;58330;51.888;11.052;2023-02-03T08:07:31;41.75;37.89;46.66;;
70740;Laerm;58330;51.888;11.052;2023-02-03T08:09:57;41.86;38.40;46.91;;
70740;Laerm;58330;51.888;11.052;2023-02-03T08:12:23;43.03;38.74;53.48;;
70740;Laerm;58330;51.888;11.052;2023-02-03T08:14:49;43.33;38.91;49.49;;
70740;Laerm;58330;51.888;11.052;2023-02-03T08:17:15;42.43;38.26;46.90;;
70740;Laerm;58330;51.888;11.052;2023-02-03T08:19:41;42.62;39.23;47.13;;
70740;Laerm;58330;51.888;11.052;2023-02-03T08:22:07;42.25;39.02;46.44;;
70740;Laerm;58330;51.888;11.052;2023-02-03T08:24:36;42.31;39.06;48.14;;
70740;Laerm;58330;51.888;11.052;2023-02-03T08:27:02;42.06;39.33;47.71;;
70740;Laerm;58330;51.888;11.052;2023-02-03T08:29:38;41.68;38.29;46.52;;
70740;Laerm;58330;51.888;11.052;2023-02-03T08:41:43;41.78;38.06;46.69;;
70740;Laerm;58330;51.888;11.052;2023-02-03T08:44:08;47.31;38.63;67.16;;
70740;Laerm;58330;51.888;11.052;2023-02-03T08:46:34;44.92;37.79;63.47;;
70740;Laerm;58330;51.888;11.052;2023-02-03T08:49:00;41.77;38.78;46.17;;
70740;Laerm;58330;51.888;11.052;2023-02-03T08:51:27;42.03;38.37;49.64;;
70740;Laerm;58330;51.888;11.052;2023-02-03T08:53:53;41.28;38.06;51.70;;
70740;Laerm;58330;51.888;11.052;2023-02-03T08:56:19;42.42;38.45;47.65;;
70740;Laerm;58330;51.888;11.052;2023-02-03T08:58:46;41.47;38.21;44.60;;
70740;Laerm;58330;51.888;11.052;2023-02-03T09:01:13;42.18;37.44;46.97;;
70740;Laerm;58330;51.888;11.052;2023-02-03T09:03:39;41.30;37.23;48.52;;
70740;Laerm;58330;51.888;11.052;2023-02-03T09:06:05;40.33;37.33;52.40;;
70740;Laerm;58330;51.888;11.052;2023-02-03T09:08:31;40.89;36.87;45.79;;
70740;Laerm;58330;51.888;11.052;2023-02-03T09:10:57;42.01;36.79;48.38;;
70740;Laerm;58330;51.888;11.052;2023-02-03T09:13:23;41.55;37.75;46.14;;
70740;Laerm;58330;51.888;11.052;2023-02-03T09:15:50;42.21;38.40;48.73;;
70740;Laerm;58330;51.888;11.052;2023-02-03T09:18:15;42.74;39.12;48.40;;
70740;Laerm;58330;51.888;11.052;2023-02-03T09:20:41;41.47;38.61;45.07;;
70740;Laerm;58330;51.888;11.052;2023-02-03T09:23:08;41.72;38.10;46.65;;
70740;Laerm;58330;51.888;11.052;2023-02-03T09:25:33;42.12;38.52;46.51;;
70740;Laerm;58330;51.888;11.052;2023-02-03T09:28:02;42.08;38.58;48.20;;
70740;Laerm;58330;51.888;11.052;2023-02-03T09:30:29;41.46;38.45;46.47;;
70740;Laerm;58330;51.888;11.052;2023-02-03T09:32:55;42.12;38.62;46.64;;
70740;Laerm;58330;51.888;11.052;2023-02-03T09:35:21;43.00;38.76;48.47;;
70740;Laerm;58330;51.888;11.052;2023-02-03T09:37:46;43.20;39.24;47.58;;
70740;Laerm;58330;51.888;11.052;2023-02-03T09:40:16;43.43;39.26;52.20;;
70740;Laerm;58330;51.888;11.052;2023-02-03T09:42:49;42.12;38.99;46.28;;
70740;Laerm;58330;51.888;11.052;2023-02-03T09:45:20;42.46;39.37;47.91;;
70740;Laerm;58330;51.888;11.052;2023-02-03T09:47:48;43.48;40.24;47.75;;
70740;Laerm;58330;51.888;11.052;2023-02-03T09:50:22;42.30;39.42;46.98;;
70740;Laerm;58330;51.888;11.052;2023-02-03T09:52:49;43.53;39.67;51.30;;
70740;Laerm;58330;51.888;11.052;2023-02-03T09:55:26;47.37;39.42;57.08;;
70740;Laerm;58330;51.888;11.052;2023-02-03T09:58:00;42.54;39.34;50.57;;
70740;Laerm;58330;51.888;11.052;2023-02-03T10:00:28;42.85;39.97;50.16;;
70740;Laerm;58330;51.888;11.052;2023-02-03T10:02:56;42.50;39.42;47.52;;
70740;Laerm;58330;51.888;11.052;2023-02-03T10:05:28;42.98;39.86;48.68;;
70740;Laerm;58330;51.888;11.052;2023-02-03T10:07:56;42.58;40.15;46.06;;
70740;Laerm;58330;51.888;11.052;2023-02-03T10:10:30;42.69;40.22;46.91;;
70740;Laerm;58330;51.888;11.052;2023-02-03T10:13:07;42.42;39.88;46.64;;
70740;Laerm;58330;51.888;11.052;2023-02-03T10:15:45;42.54;39.50;47.90;;
70740;Laerm;58330;51.888;11.052;2023-02-03T10:18:15;42.04;39.50;46.03;;
70740;Laerm;58330;51.888;11.052;2023-02-03T10:20:43;42.37;39.53;47.84;;
70740;Laerm;58330;51.888;11.052;2023-02-03T10:23:12;42.20;39.47;48.05;;
70740;Laerm;58330;51.888;11.052;2023-02-03T10:25:42;41.84;39.09;47.62;;
70740;Laerm;58330;51.888;11.052;2023-02-03T10:28:11;43.09;39.76;51.52;;
70740;Laerm;58330;51.888;11.052;2023-02-03T10:36:56;42.33;39.89;46.59;;
70740;Laerm;58330;51.888;11.052;2023-02-03T10:39:30;42.27;39.46;46.05;;
70740;Laerm;58330;51.888;11.052;2023-02-03T10:41:56;43.02;39.47;47.08;;
70740;Laerm;58330;51.888;11.052;2023-02-03T10:44:24;43.13;39.82;46.77;;
70740;Laerm;58330;51.888;11.052;2023-02-03T10:46:54;43.48;38.76;59.37;;
70740;Laerm;58330;51.888;11.052;2023-02-03T10:49:19;42.49;39.85;47.94;;
70740;Laerm;58330;51.888;11.052;2023-02-03T10:51:47;42.45;39.84;47.83;;
70740;Laerm;58330;51.888;11.052;2023-02-03T10:54:25;42.82;40.06;54.63;;
70740;Laerm;58330;51.888;11.052;2023-02-03T10:56:51;43.29;40.76;46.43;;
70740;Laerm;58330;51.888;11.052;2023-02-03T10:59:24;42.86;40.38;45.25;;
70740;Laerm;58330;51.888;11.052;2023-02-03T11:01:52;42.57;39.66;46.34;;
70740;Laerm;58330;51.888;11.052;2023-02-03T11:04:22;41.44;39.46;44.96;;
70740;Laerm;58330;51.888;11.052;2023-02-03T11:06:52;41.54;39.42;45.18;;
70740;Laerm;58330;51.888;11.052;2023-02-03T11:09:20;41.32;39.10;44.34;;
70740;Laerm;58330;51.888;11.052;2023-02-03T11:11:59;41.45;39.26;44.95;;
70740;Laerm;58330;51.888;11.052;2023-02-03T11:14:27;41.93;39.58;47.47;;
70740;Laerm;58330;51.888;11.052;2023-02-03T11:17:04;43.20;39.72;51.91;;
70740;Laerm;58330;51.888;11.052;2023-02-03T11:19:30;42.64;39.77;48.50;;
70740;Laerm;58330;51.888;11.052;2023-02-03T11:21:56;42.54;40.07;47.12;;
70740;Laerm;58330;51.888;11.052;2023-02-03T11:24:23;42.81;40.28;45.86;;
70740;Laerm;58330;51.888;11.052;2023-02-03T11:26:52;42.78;40.08;46.25;;
70740;Laerm;58330;51.888;11.052;2023-02-03T11:29:21;43.07;39.93;46.80;;
70740;Laerm;58330;51.888;11.052;2023-02-03T11:31:48;42.73;39.73;47.67;;
70740;Laerm;58330;51.888;11.052;2023-02-03T11:34:15;42.82;40.14;48.08;;
70740;Laerm;58330;51.888;11.052;2023-02-03T11:36:41;42.87;40.46;45.76;;
70740;Laerm;58330;51.888;11.052;2023-02-03T11:39:18;43.13;40.33;46.33;;
70740;Laerm;58330;51.888;11.052;2023-02-03T11:41:44;43.89;39.82;48.18;;
70740;Laerm;58330;51.888;11.052;2023-02-03T11:44:15;43.65;40.80;46.92;;
70740;Laerm;58330;51.888;11.052;2023-02-03T11:46:41;43.77;40.83;47.63;;
70740;Laerm;58330;51.888;11.052;2023-02-03T11:49:10;43.30;40.60;46.46;;
70740;Laerm;58330;51.888;11.052;2023-02-03T11:51:39;43.22;40.87;46.84;;
70740;Laerm;58330;51.888;11.052;2023-02-03T11:54:16;43.28;39.94;49.58;;
70740;Laerm;58330;51.888;11.052;2023-02-03T11:56:54;43.44;40.26;47.09;;
70740;Laerm;58330;51.888;11.052;2023-02-03T12:02:22;43.23;39.14;47.09;;
70740;Laerm;58330;51.888;11.052;2023-02-03T12:05:02;43.63;40.46;48.56;;
70740;Laerm;58330;51.888;11.052;2023-02-03T12:07:33;43.38;39.85;47.59;;
70740;Laerm;58330;51.888;11.052;2023-02-03T12:10:03;43.37;39.82;48.50;;
70740;Laerm;58330;51.888;11.052;2023-02-03T12:15:20;43.09;40.16;52.23;;
70740;Laerm;58330;51.888;11.052;2023-02-03T12:17:52;43.18;39.51;51.55;;
70740;Laerm;58330;51.888;11.052;2023-02-03T12:20:26;43.08;39.15;51.50;;
70740;Laerm;58330;51.888;11.052;2023-02-03T12:23:02;42.97;39.57;47.08;;
70740;Laerm;58330;51.888;11.052;2023-02-03T12:25:35;42.84;38.70;57.85;;
70740;Laerm;58330;51.888;11.052;2023-02-03T12:28:08;42.00;39.17;46.15;;
70740;Laerm;58330;51.888;11.052;2023-02-03T12:30:38;42.45;38.59;46.77;;
70740;Laerm;58330;51.888;11.052;2023-02-03T12:33:09;43.20;39.53;49.29;;
70740;Laerm;58330;51.888;11.052;2023-02-03T12:35:37;42.35;37.90;47.67;;
70740;Laerm;58330;51.888;11.052;2023-02-03T12:38:04;43.00;38.98;48.70;;
70740;Laerm;58330;51.888;11.052;2023-02-03T12:40:34;43.59;38.71;51.98;;
70740;Laerm;58330;51.888;11.052;2023-02-03T12:43:02;42.66;38.79;47.21;;
70740;Laerm;58330;51.888;11.052;2023-02-03T12:45:31;43.35;39.59;50.02;;
70740;Laerm;58330;51.888;11.052;2023-02-03T12:47:59;42.84;38.25;52.03;;
70740;Laerm;58330;51.888;11.052;2023-02-03T12:50:29;41.65;37.59;48.09;;
70740;Laerm;58330;51.888;11.052;2023-02-03T12:52:57;42.32;38.07;47.20;;
70740;Laerm;58330;51.888;11.052;2023-02-03T12:55:26;42.62;38.34;48.01;;
70740;Laerm;58330;51.888;11.052;2023-02-03T12:57:53;42.81;39.11;48.08;;
70740;Laerm;58330;51.888;11.052;2023-02-03T13:00:26;42.83;39.03;50.44;;
70740;Laerm;58330;51.888;11.052;2023-02-03T13:02:58;41.87;37.94;46.98;;
70740;Laerm;58330;51.888;11.052;2023-02-03T13:05:29;42.49;38.50;48.49;;
70740;Laerm;58330;51.888;11.052;2023-02-03T13:07:58;42.24;37.23;48.73;;
70740;Laerm;58330;51.888;11.052;2023-02-03T13:10:27;41.57;38.00;46.16;;
70740;Laerm;58330;51.888;11.052;2023-02-03T13:12:56;41.49;37.61;48.30;;
70740;Laerm;58330;51.888;11.052;2023-02-03T13:15:23;42.55;38.98;49.30;;
70740;Laerm;58330;51.888;11.052;2023-02-03T13:17:51;43.03;38.54;47.82;;
70740;Laerm;58330;51.888;11.052;2023-02-03T13:20:21;41.73;37.68;46.51;;
70740;Laerm;58330;51.888;11.052;2023-02-03T13:22:47;42.60;38.15;51.27;;
70740;Laerm;58330;51.888;11.052;2023-02-03T13:25:15;42.64;38.42;50.45;;
70740;Laerm;58330;51.888;11.052;2023-02-03T13:27:44;47.39;38.39;70.56;;
70740;Laerm;58330;51.888;11.052;2023-02-03T13:30:18;42.04;37.21;47.16;;
70740;Laerm;58330;51.888;11.052;2023-02-03T13:32:52;41.77;37.59;49.33;;
70740;Laerm;58330;51.888;11.052;2023-02-03T13:35:31;41.20;37.66;46.31;;
70740;Laerm;58330;51.888;11.052;2023-02-03T13:38:09;42.57;37.94;49.12;;
70740;Laerm;58330;51.888;11.052;2023-02-03T13:40:40;42.76;37.63;53.64;;
70740;Laerm;58330;51.888;11.052;2023-02-03T13:43:10;42.88;37.62;49.55;;
70740;Laerm;58330;51.888;11.052;2023-02-03T13:45:39;41.16;38.23;47.19;;
70740;Laerm;58330;51.888;11.052;2023-02-03T13:48:07;41.18;37.11;48.75;;
70740;Laerm;58330;51.888;11.052;2023-02-03T13:50:34;42.26;37.83;49.81;;
70740;Laerm;58330;51.888;11.052;2023-02-03T13:53:01;41.56;37.50;47.89;;
70740;Laerm;58330;51.888;11.052;2023-02-03T13:55:30;42.08;37.16;52.03;;
70740;Laerm;58330;51.888;11.052;2023-02-03T13:57:58;41.33;36.64;49.32;;
70740;Laerm;58330;51.888;11.052;2023-02-03T14:03:10;41.98;37.31;50.59;;
70740;Laerm;58330;51.888;11.052;2023-02-03T14:05:43;42.06;37.15;47.54;;
70740;Laerm;58330;51.888;11.052;2023-02-03T14:13:41;40.43;36.39;54.71;;
70740;Laerm;58330;51.888;11.052;2023-02-03T14:16:21;40.42;36.75;47.22;;